createdAt,value
2019-02-08T00:00:56.471Z,1.20
2019-02-08T00:03:27.527Z,1.20
2019-02-08T00:05:56.281Z,1.10
2019-02-08T00:08:29.223Z,1.10
2019-02-08T00:10:57.252Z,1.20
2019-02-08T00:13:40.023Z,1.30
2019-02-08T00:16:08.966Z,1.40
2019-02-08T00:18:45.318Z,1.40
2019-02-08T00:21:13.591Z,1.50
2019-02-08T00:23:44.570Z,1.40
2019-02-08T00:26:12.796Z,1.60
2019-02-08T00:28:42.360Z,1.60
2019-02-08T00:31:10.524Z,1.60
2019-02-08T00:33:38.668Z,1.60
2019-02-08T00:36:06.499Z,1.60
2019-02-08T00:38:34.454Z,1.60
2019-02-08T00:41:02.386Z,1.50
2019-02-08T00:43:30.878Z,1.50
2019-02-08T00:45:58.881Z,1.40
2019-02-08T00:48:26.866Z,1.40
2019-02-08T00:50:55.265Z,1.40
2019-02-08T00:53:23.388Z,1.40
2019-02-08T00:55:51.456Z,1.50
2019-02-08T00:58:19.875Z,1.50
2019-02-08T01:00:47.786Z,1.60
2019-02-08T01:03:15.896Z,1.60
2019-02-08T01:05:43.741Z,1.70
2019-02-08T01:08:11.848Z,1.70
2019-02-08T01:10:40.511Z,1.70
2019-02-08T01:13:08.880Z,1.70
2019-02-08T01:15:39.515Z,1.80
2019-02-08T01:18:09.332Z,1.70
2019-02-08T01:20:37.302Z,1.80
2019-02-08T01:23:05.369Z,1.80
2019-02-08T01:25:33.650Z,1.90
2019-02-08T01:28:01.772Z,1.90
2019-02-08T01:30:30.017Z,1.90
2019-02-08T01:32:58.133Z,1.90
2019-02-08T01:35:27.776Z,1.90
2019-02-08T01:37:58.089Z,1.90
2019-02-08T01:40:30.932Z,1.90
2019-02-08T01:43:00.314Z,1.90
2019-02-08T01:45:29.515Z,1.90
2019-02-08T01:47:57.404Z,1.90
2019-02-08T01:50:26.470Z,1.90
2019-02-08T01:52:54.762Z,1.90
2019-02-08T01:55:22.844Z,2.00
2019-02-08T01:57:51.502Z,2.00
2019-02-08T02:00:24.695Z,2.10
2019-02-08T02:02:53.271Z,2.10
2019-02-08T02:05:21.258Z,2.10
2019-02-08T02:07:49.133Z,2.10
2019-02-08T02:10:25.379Z,2.10
2019-02-08T02:12:53.502Z,2.20
2019-02-08T02:15:21.723Z,2.10
2019-02-08T02:20:29.954Z,2.20
2019-02-08T02:22:57.898Z,2.20
2019-02-08T02:25:26.250Z,2.30
2019-02-08T02:27:57.009Z,2.30
2019-02-08T02:30:31.217Z,2.40
2019-02-08T02:33:02.015Z,2.30
2019-02-08T02:35:34.639Z,2.40
2019-02-08T02:38:16.842Z,2.60
2019-02-08T02:40:45.372Z,2.50
2019-02-08T02:43:43.688Z,2.50
2019-02-08T02:46:10.787Z,2.50
2019-02-08T02:48:48.273Z,2.60
2019-02-08T02:51:59.740Z,2.70
2019-02-08T02:54:34.854Z,2.70
2019-02-08T02:57:07.354Z,2.70
2019-02-08T02:59:35.630Z,2.70
2019-02-08T03:02:04.039Z,2.70
2019-02-08T03:04:32.488Z,2.70
2019-02-08T03:07:00.781Z,2.70
2019-02-08T03:09:28.929Z,2.60
2019-02-08T03:11:57.675Z,2.60
2019-02-08T03:14:25.957Z,2.60
2019-02-08T03:16:54.256Z,2.60
2019-02-08T03:19:24.768Z,2.70
2019-02-08T03:21:52.813Z,2.60
2019-02-08T03:24:20.961Z,2.60
2019-02-08T03:26:49.344Z,2.70
2019-02-08T03:29:20.945Z,2.60
2019-02-08T03:31:49.105Z,2.60
2019-02-08T03:34:20.225Z,2.70
2019-02-08T03:36:48.449Z,2.70
2019-02-08T03:39:16.893Z,2.70
2019-02-08T03:41:45.418Z,2.70
2019-02-08T03:44:21.163Z,2.70
2019-02-08T03:47:09.140Z,2.70
2019-02-08T03:49:43.102Z,2.80
2019-02-08T03:52:13.943Z,2.80
2019-02-08T03:54:59.953Z,2.80
2019-02-08T03:57:46.455Z,2.80
2019-02-08T04:00:38.814Z,2.90
2019-02-08T04:03:36.329Z,2.90
2019-02-08T04:06:04.396Z,2.80
2019-02-08T04:08:32.375Z,2.80
2019-02-08T04:11:02.092Z,2.80
2019-02-08T04:13:30.740Z,2.80
2019-02-08T04:15:59.553Z,2.70
2019-02-08T04:18:31.082Z,2.80
2019-02-08T04:20:59.112Z,2.60
2019-02-08T04:23:30.400Z,2.60
2019-02-08T04:25:58.588Z,2.60
2019-02-08T04:28:28.138Z,2.50
2019-02-08T04:30:56.273Z,2.50
2019-02-08T04:33:24.405Z,2.50
2019-02-08T04:35:52.642Z,2.50
2019-02-08T04:38:21.426Z,2.50
2019-02-08T04:40:49.371Z,2.50
2019-02-08T04:43:17.563Z,2.50
2019-02-08T04:45:45.968Z,2.40
2019-02-08T04:48:14.090Z,2.50
2019-02-08T04:50:42.253Z,2.40
2019-02-08T04:53:16.463Z,2.40
2019-02-08T04:55:44.628Z,2.40
2019-02-08T04:58:17.029Z,2.40
2019-02-08T05:00:44.942Z,2.50
2019-02-08T05:03:16.244Z,2.40
2019-02-08T05:05:57.630Z,2.40
2019-02-08T05:08:25.798Z,2.50
2019-02-08T05:10:53.776Z,2.60
2019-02-08T05:13:52.549Z,2.70
2019-02-08T05:16:35.790Z,2.70
2019-02-08T05:19:16.389Z,2.90
2019-02-08T05:21:51.263Z,2.90
2019-02-08T05:25:16.500Z,3.10
2019-02-08T05:28:07.699Z,3.10
2019-02-08T05:30:41.533Z,3.20
2019-02-08T05:33:09.743Z,3.20
2019-02-08T05:35:43.309Z,3.20
2019-02-08T05:38:19.981Z,3.30
2019-02-08T05:40:48.147Z,3.30
2019-02-08T05:43:50.120Z,3.30
2019-02-08T05:46:40.809Z,3.30
2019-02-08T05:49:11.548Z,3.40
2019-02-08T05:51:39.529Z,3.30
2019-02-08T05:54:07.669Z,3.40
2019-02-08T05:56:35.809Z,3.40
2019-02-08T05:59:03.622Z,3.50
2019-02-08T06:01:31.323Z,3.50
2019-02-08T06:03:58.979Z,3.50
2019-02-08T06:06:26.582Z,3.40
2019-02-08T06:08:54.375Z,3.40
2019-02-08T06:11:22.028Z,3.40
2019-02-08T06:13:49.544Z,3.40
2019-02-08T06:16:17.119Z,3.30
2019-02-08T06:18:45.879Z,3.30
2019-02-08T06:21:13.477Z,3.20
2019-02-08T06:23:41.033Z,3.20
2019-02-08T06:26:08.676Z,3.10
2019-02-08T06:28:36.240Z,3.10
2019-02-08T06:31:04.316Z,3.10
2019-02-08T06:33:31.946Z,3.10
2019-02-08T06:35:59.468Z,3.10
2019-02-08T06:38:27.106Z,3.10
2019-02-08T06:40:54.678Z,3.10
2019-02-08T06:43:22.294Z,3.00
2019-02-08T06:45:49.924Z,3.10
2019-02-08T06:48:17.550Z,3.10
2019-02-08T06:50:45.375Z,3.10
2019-02-08T06:53:12.955Z,3.20
2019-02-08T06:55:40.498Z,3.20
2019-02-08T06:58:38.902Z,3.20
2019-02-08T07:01:32.728Z,3.20
2019-02-08T07:04:22.337Z,3.20
2019-02-08T07:07:15.200Z,3.20
2019-02-08T07:10:00.560Z,3.30
2019-02-08T07:12:46.134Z,3.20
2019-02-08T07:15:24.724Z,3.30
2019-02-08T07:18:20.310Z,3.30
2019-02-08T07:21:01.168Z,3.30
2019-02-08T07:23:46.624Z,3.40
2019-02-08T07:26:45.636Z,3.40
2019-02-08T07:29:32.737Z,3.40
2019-02-08T07:32:22.404Z,3.50
2019-02-08T07:35:12.152Z,3.50
2019-02-08T07:38:08.117Z,3.50
2019-02-08T07:40:57.020Z,3.50
2019-02-08T07:43:34.581Z,3.50
2019-02-08T07:46:21.137Z,3.50
2019-02-08T07:48:59.532Z,3.50
2019-02-08T07:51:52.923Z,3.50
2019-02-08T07:54:45.841Z,3.50
2019-02-08T07:57:38.843Z,3.50
2019-02-08T08:00:27.492Z,3.50
2019-02-08T08:03:14.620Z,3.50
2019-02-08T08:06:10.286Z,3.50
2019-02-08T08:09:12.421Z,3.60
2019-02-08T08:11:45.413Z,3.60
2019-02-08T08:14:32.654Z,3.60
2019-02-08T08:17:14.472Z,3.70
2019-02-08T08:20:16.593Z,3.80
2019-02-08T08:23:12.698Z,3.90
2019-02-08T08:25:55.307Z,4.00
2019-02-08T08:28:42.612Z,4.10
2019-02-08T08:31:22.732Z,4.20
2019-02-08T08:34:32.577Z,4.30
2019-02-08T08:37:47.660Z,4.50
2019-02-08T08:41:18.090Z,4.70
2019-02-08T08:44:27.654Z,4.80
2019-02-08T08:47:50.819Z,4.90
2019-02-08T08:50:45.834Z,4.90
2019-02-08T08:53:30.686Z,4.80
2019-02-08T08:56:27.631Z,4.70
2019-02-08T08:59:20.673Z,4.70
2019-02-08T09:02:27.423Z,4.70
2019-02-08T09:05:31.438Z,4.60
2019-02-08T09:08:40.709Z,4.70
2019-02-08T09:11:44.632Z,4.60
2019-02-08T09:14:59.649Z,4.60
2019-02-08T09:17:49.047Z,4.70
2019-02-08T09:21:01.392Z,4.60
2019-02-08T09:24:21.568Z,4.60
2019-02-08T09:27:20.610Z,4.70
2019-02-08T09:30:27.525Z,4.70
2019-02-08T09:33:54.979Z,4.80
2019-02-08T09:36:59.861Z,4.80
2019-02-08T09:40:09.156Z,4.90
2019-02-08T09:43:29.188Z,5.00
2019-02-08T09:46:36.640Z,5.00
2019-02-08T09:49:33.591Z,5.10
2019-02-08T09:52:41.113Z,5.10
2019-02-08T09:56:01.814Z,5.10
2019-02-08T09:59:28.725Z,5.20
2019-02-08T10:02:24.592Z,5.30
2019-02-08T10:05:32.383Z,5.30
2019-02-08T10:08:39.727Z,5.30
2019-02-08T10:11:44.944Z,5.40
2019-02-08T10:14:46.985Z,5.40
2019-02-08T10:17:41.946Z,5.40
2019-02-08T10:20:46.460Z,5.40
2019-02-08T10:24:06.997Z,5.50
2019-02-08T10:27:25.127Z,5.50
2019-02-08T10:30:43.542Z,5.40
2019-02-08T10:33:57.602Z,5.50
2019-02-08T10:37:02.555Z,5.40
2019-02-08T10:40:15.093Z,5.40
2019-02-08T10:43:22.586Z,5.40
2019-02-08T10:46:24.756Z,5.50
2019-02-08T10:49:42.697Z,5.60
2019-02-08T10:52:42.526Z,5.70
2019-02-08T10:55:25.820Z,5.70
2019-02-08T10:58:51.472Z,5.80
2019-02-08T11:01:43.001Z,5.80
2019-02-08T11:04:53.554Z,5.80
2019-02-08T11:08:16.319Z,5.80
2019-02-08T11:11:24.023Z,5.80
2019-02-08T11:14:34.469Z,5.90
2019-02-08T11:17:29.485Z,5.80
2019-02-08T11:19:57.179Z,5.90
2019-02-08T11:22:24.965Z,5.90
2019-02-08T11:24:52.662Z,6.10
2019-02-08T11:27:20.328Z,6.00
2019-02-08T11:29:47.977Z,6.10
2019-02-08T11:32:15.558Z,6.20
2019-02-08T11:34:43.296Z,6.30
2019-02-08T11:37:10.914Z,6.20
2019-02-08T11:39:38.609Z,6.20
2019-02-08T11:42:06.282Z,6.30
2019-02-08T11:44:34.076Z,6.30
2019-02-08T11:47:01.775Z,6.30
2019-02-08T11:49:29.541Z,6.30
2019-02-08T11:51:57.262Z,6.30
2019-02-08T11:54:25.889Z,6.30
2019-02-08T11:56:53.726Z,6.30
2019-02-08T11:59:22.291Z,6.30
2019-02-08T12:01:51.425Z,6.40
2019-02-08T12:04:19.202Z,6.40
2019-02-08T12:06:46.945Z,6.40
2019-02-08T12:09:15.834Z,6.30
2019-02-08T12:11:45.006Z,6.30
2019-02-08T12:14:12.761Z,6.30
2019-02-08T12:16:40.433Z,6.30
2019-02-08T12:19:08.985Z,6.40
2019-02-08T12:21:42.790Z,6.40
2019-02-08T12:24:17.771Z,6.40
2019-02-08T12:26:46.188Z,6.50
2019-02-08T12:29:14.712Z,6.30
2019-02-08T12:31:47.329Z,6.30
2019-02-08T12:34:20.124Z,6.30
2019-02-08T12:36:48.194Z,6.10
2019-02-08T12:39:16.239Z,6.30
2019-02-08T12:41:44.532Z,6.30
2019-02-08T12:44:12.791Z,6.30
2019-02-08T12:46:43.667Z,6.40
2019-02-08T12:49:11.751Z,6.40
2019-02-08T12:51:42.943Z,6.40
2019-02-08T12:54:12.981Z,6.40
2019-02-08T12:56:46.023Z,6.40
2019-02-08T12:59:17.649Z,6.40
2019-02-08T13:01:45.831Z,6.30
2019-02-08T13:04:14.255Z,6.40
2019-02-08T13:06:42.327Z,6.30
2019-02-08T13:09:11.789Z,6.30
2019-02-08T13:11:40.811Z,6.20
2019-02-08T13:14:09.664Z,6.30
2019-02-08T13:16:38.092Z,6.30
2019-02-08T13:19:08.951Z,6.30
2019-02-08T13:21:39.401Z,6.40
2019-02-08T13:24:07.680Z,6.40
2019-02-08T13:26:40.953Z,6.30
2019-02-08T13:29:11.462Z,6.30
2019-02-08T13:31:39.655Z,6.20
2019-02-08T13:34:07.418Z,6.20
2019-02-08T13:36:35.447Z,6.30
2019-02-08T13:39:05.607Z,6.30
2019-02-08T13:41:33.668Z,6.20
2019-02-08T13:44:01.614Z,6.30
2019-02-08T13:46:29.665Z,6.20
2019-02-08T13:48:57.473Z,6.20
2019-02-08T13:51:25.458Z,6.20
2019-02-08T13:53:53.829Z,6.20
2019-02-08T13:56:21.994Z,6.20
2019-02-08T13:58:51.888Z,6.30
2019-02-08T14:01:22.539Z,6.40
2019-02-08T14:03:52.652Z,6.50
2019-02-08T14:06:20.612Z,6.50
2019-02-08T14:08:48.748Z,6.50
2019-02-08T14:11:16.671Z,6.30
2019-02-08T14:13:44.654Z,6.20
2019-02-08T14:16:22.921Z,6.20
2019-02-08T14:18:54.804Z,6.10
2019-02-08T14:21:22.806Z,6.30
2019-02-08T14:23:50.829Z,6.50
2019-02-08T14:26:18.890Z,6.30
2019-02-08T14:28:46.808Z,6.20
2019-02-08T14:31:14.821Z,6.00
2019-02-08T14:33:42.742Z,5.90
2019-02-08T14:36:10.760Z,5.80
2019-02-08T14:38:38.682Z,5.70
2019-02-08T14:41:06.748Z,5.70
2019-02-08T14:43:34.614Z,5.70
2019-02-08T14:46:02.814Z,5.60
2019-02-08T14:48:30.542Z,5.50
2019-02-08T14:50:58.566Z,5.50
2019-02-08T14:53:27.744Z,5.40
2019-02-08T14:55:55.644Z,5.30
2019-02-08T14:58:25.668Z,5.20
2019-02-08T15:01:00.528Z,5.10
2019-02-08T15:05:58.912Z,4.90
2019-02-08T15:08:26.877Z,5.00
2019-02-08T15:10:55.221Z,4.90
2019-02-08T15:13:23.645Z,5.00
2019-02-08T15:15:52.596Z,5.00
2019-02-08T15:18:20.609Z,5.00
2019-02-08T15:20:48.902Z,4.80
2019-02-08T15:23:16.854Z,4.60
2019-02-08T15:25:46.925Z,4.50
2019-02-08T15:28:15.514Z,4.40
2019-02-08T15:30:50.656Z,4.30
2019-02-08T15:33:18.832Z,4.30
2019-02-08T15:35:50.651Z,4.20
2019-02-08T15:38:19.919Z,4.10
2019-02-08T15:40:52.213Z,4.00
2019-02-08T15:43:22.321Z,3.90
2019-02-08T15:45:56.372Z,3.90
2019-02-08T15:48:25.034Z,3.80
2019-02-08T15:50:54.557Z,3.80
2019-02-08T15:53:23.877Z,3.90
2019-02-08T15:55:55.732Z,4.00
2019-02-08T15:58:25.580Z,4.10
2019-02-08T16:00:56.067Z,4.00
2019-02-08T16:03:27.028Z,3.90
2019-02-08T16:05:56.133Z,3.80
2019-02-08T16:08:25.109Z,3.90
2019-02-08T16:10:56.122Z,3.90
2019-02-08T16:13:24.753Z,4.00
2019-02-08T16:15:52.873Z,4.00
2019-02-08T16:18:21.500Z,3.90
2019-02-08T16:20:54.545Z,3.90
2019-02-08T16:24:14.839Z,3.70
2019-02-08T16:26:42.239Z,3.80
2019-02-08T16:29:13.469Z,3.70
2019-02-08T16:31:41.835Z,3.60
2019-02-08T16:34:10.960Z,3.50
2019-02-08T16:36:38.924Z,3.40
2019-02-08T16:39:09.402Z,3.30
2019-02-08T16:41:49.248Z,3.10
2019-02-08T16:44:17.980Z,3.10
2019-02-08T16:46:50.847Z,3.20
2019-02-08T16:49:21.499Z,3.20
2019-02-08T16:51:51.939Z,3.20
2019-02-08T16:54:20.195Z,3.20
2019-02-08T16:56:48.526Z,3.20
2019-02-08T16:59:16.454Z,3.10
2019-02-08T17:01:44.747Z,3.00
2019-02-08T17:04:13.660Z,2.90
2019-02-08T17:06:41.872Z,2.90
2019-02-08T17:09:15.894Z,2.80
2019-02-08T17:11:43.888Z,2.80
2019-02-08T17:14:12.782Z,2.70
2019-02-08T17:16:42.574Z,2.80
2019-02-08T17:19:10.536Z,2.70
2019-02-08T17:21:38.633Z,2.70
2019-02-08T17:24:08.136Z,2.70
2019-02-08T17:26:36.557Z,2.60
2019-02-08T17:29:04.866Z,2.50
2019-02-08T17:31:32.970Z,2.40
2019-02-08T17:34:01.160Z,2.30
2019-02-08T17:36:29.163Z,2.40
2019-02-08T17:38:57.224Z,2.40
2019-02-08T17:41:25.173Z,2.30
2019-02-08T17:43:53.420Z,2.20
2019-02-08T17:46:21.801Z,2.20
2019-02-08T17:48:50.545Z,2.30
2019-02-08T17:51:18.449Z,2.40
2019-02-08T17:53:46.743Z,2.30
2019-02-08T17:56:14.979Z,2.40
2019-02-08T17:58:43.125Z,2.40
2019-02-08T18:01:11.104Z,2.30
2019-02-08T18:03:40.729Z,2.20
2019-02-08T18:06:09.330Z,2.20
2019-02-08T18:08:37.348Z,2.20
2019-02-08T18:11:05.256Z,2.10
2019-02-08T18:13:33.237Z,2.10
2019-02-08T18:16:01.191Z,2.10
2019-02-08T18:18:29.136Z,2.00
2019-02-08T18:21:00.179Z,1.90
2019-02-08T18:23:31.149Z,1.90
2019-02-08T18:25:59.324Z,1.80
2019-02-08T18:28:27.206Z,1.70
2019-02-08T18:30:55.560Z,1.70
2019-02-08T18:33:23.818Z,1.70
2019-02-08T18:35:58.887Z,1.70
2019-02-08T18:38:27.628Z,1.60
2019-02-08T18:40:56.973Z,1.50
2019-02-08T18:43:25.135Z,1.60
2019-02-08T18:45:53.391Z,1.50
2019-02-08T18:48:49.240Z,1.50
2019-02-08T18:51:18.770Z,1.60
2019-02-08T18:57:01.039Z,1.80
2019-02-08T18:59:46.630Z,2.00
2019-02-08T19:02:15.643Z,2.30
2019-02-08T19:04:51.918Z,2.20
2019-02-08T19:07:20.305Z,2.20
2019-02-08T19:09:51.670Z,2.10
2019-02-08T19:12:22.971Z,2.00
2019-02-08T19:21:21.330Z,1.90
2019-02-08T19:26:27.058Z,1.40
2019-02-08T19:28:55.272Z,1.40
2019-02-08T19:31:46.464Z,1.20
2019-02-08T19:34:19.294Z,1.20
2019-02-08T19:36:52.264Z,1.10
2019-02-08T19:39:20.324Z,1.10
2019-02-08T19:41:49.642Z,1.00
2019-02-08T19:44:17.696Z,1.00
2019-02-08T19:46:46.169Z,0.90
2019-02-08T19:49:14.649Z,0.80
2019-02-08T19:51:48.151Z,0.80
2019-02-08T19:55:00.458Z,0.70
2019-02-08T19:57:59.549Z,0.60
2019-02-08T20:00:44.416Z,0.70
2019-02-08T20:03:14.264Z,0.40
2019-02-08T20:05:42.543Z,0.50
2019-02-08T20:08:12.214Z,0.50
2019-02-08T20:10:41.625Z,0.40
2019-02-08T20:13:09.792Z,0.40
2019-02-08T20:15:38.077Z,0.50
2019-02-08T20:18:08.687Z,0.40
2019-02-08T20:20:36.788Z,0.30
2019-02-08T20:23:05.225Z,0.10
2019-02-08T20:25:33.450Z,0.00
2019-02-08T20:28:01.655Z,-0.10
2019-02-08T20:30:30.926Z,-0.50
2019-02-08T20:33:00.395Z,-0.30
2019-02-08T20:35:28.325Z,-0.40
2019-02-08T20:37:56.224Z,-0.40
2019-02-08T20:40:32.233Z,-0.50
2019-02-08T20:43:00.428Z,-0.50
2019-02-08T20:45:29.834Z,-0.50
2019-02-08T20:48:02.403Z,-0.60
2019-02-08T20:50:30.518Z,-0.70
2019-02-08T20:52:58.634Z,-0.60
2019-02-08T20:55:26.708Z,-0.70
2019-02-08T20:57:57.724Z,-0.80
2019-02-08T21:00:33.934Z,-0.80
2019-02-08T21:03:02.097Z,-0.90
2019-02-08T21:05:30.412Z,-0.90
2019-02-08T21:07:58.599Z,-0.90
2019-02-08T21:10:28.127Z,-0.90
2019-02-08T21:12:57.188Z,-0.80
2019-02-08T21:15:25.972Z,-1.10
2019-02-08T21:17:56.758Z,-0.90
2019-02-08T21:20:28.039Z,-0.90
2019-02-08T21:22:55.346Z,-0.90
2019-02-08T21:25:25.358Z,-1.00
2019-02-08T21:27:53.788Z,-0.90
2019-02-08T21:30:22.186Z,-0.90
2019-02-08T21:32:50.269Z,-0.90
2019-02-08T21:35:18.398Z,-0.90
2019-02-08T21:37:46.530Z,-0.70
2019-02-08T21:40:17.101Z,-0.90
2019-02-08T21:42:46.742Z,-0.80
2019-02-08T21:45:18.258Z,-1.00
2019-02-08T21:47:46.548Z,-1.00
2019-02-08T21:50:15.795Z,-0.90
2019-02-08T21:52:43.802Z,-0.90
2019-02-08T21:55:12.526Z,-0.90
2019-02-08T21:57:40.666Z,-0.90
2019-02-08T22:00:17.735Z,-0.90
2019-02-08T22:02:45.846Z,-0.90
2019-02-08T22:05:14.161Z,-0.90
2019-02-08T22:07:42.486Z,-1.00
2019-02-08T22:10:11.420Z,-0.90
2019-02-08T22:12:39.509Z,-0.90
2019-02-08T22:15:10.871Z,-0.90
2019-02-08T22:17:40.940Z,-0.70
2019-02-08T22:20:12.920Z,-0.80
2019-02-08T22:22:41.067Z,-0.90
2019-02-08T22:25:10.826Z,-0.90
2019-02-08T22:27:39.120Z,-0.90
2019-02-08T22:30:10.708Z,-0.90
2019-02-08T22:32:38.829Z,-0.90
2019-02-08T22:35:11.409Z,-0.80
2019-02-08T22:37:41.451Z,-0.80
2019-02-08T22:40:12.040Z,-0.80
2019-02-08T22:42:41.021Z,-0.80
2019-02-08T22:45:16.336Z,-0.80
2019-02-08T22:47:44.374Z,-0.80
2019-02-08T22:50:12.573Z,-0.80
2019-02-08T22:52:40.495Z,-0.80
2019-02-08T22:55:11.141Z,-0.80
2019-02-08T22:57:38.972Z,-0.90
2019-02-08T23:00:36.502Z,-1.00
2019-02-08T23:03:05.250Z,-1.00
2019-02-08T23:05:33.372Z,-1.10
2019-02-08T23:08:01.402Z,-1.00
2019-02-08T23:10:29.301Z,-1.10
2019-02-08T23:12:57.369Z,-1.00
2019-02-08T23:15:25.491Z,-1.00
2019-02-08T23:17:53.360Z,-1.00
2019-02-08T23:20:21.347Z,-1.00
2019-02-08T23:22:49.171Z,-1.00
2019-02-08T23:25:16.950Z,-0.90
2019-02-08T23:27:44.898Z,-0.90
2019-02-08T23:30:15.595Z,-0.90
2019-02-08T23:32:43.650Z,-0.80
2019-02-08T23:35:11.490Z,-0.80
2019-02-08T23:37:39.474Z,-0.80
2019-02-08T23:40:07.432Z,-0.80
2019-02-08T23:42:35.636Z,-0.80
2019-02-08T23:45:04.028Z,-0.70
2019-02-08T23:47:32.242Z,-0.80
2019-02-08T23:50:00.212Z,-0.70
2019-02-08T23:52:28.340Z,-0.70
2019-02-08T23:54:56.304Z,-0.60
2019-02-08T23:57:24.287Z,-0.60
2019-02-08T23:59:52.262Z,-0.50
